Time;durP1;ratioP1;P1;durP2;ratioP2;P2;SDS_P1;SDS_P2;PMS_P1;PMS_P2;Temp;Humidity;BMP_temperature;BMP_pressure;BME280_temperature;BME280_humidity;BME280_pressure;Samples;Min_cycle;Max_cycle;Signal;HPM_P1;HPM_P2
2023/02/07 00:00:15;;;;;;;218.40;200.77;;;;;;;-4.43;89.01;104382.38;4999475;28;20037;-73
2023/02/07 00:02:44;;;;;;;227.80;210.10;;;;;;;-4.52;88.32;104380.25;5001437;28;20048;-72
2023/02/07 00:05:10;;;;;;;221.13;202.77;;;;;;;-4.53;88.80;104378.56;4980100;28;20116;-72
2023/02/07 00:07:36;;;;;;;229.02;211.43;;;;;;;-4.53;88.82;104370.72;4994998;28;20455;-73
2023/02/07 00:10:04;;;;;;;232.38;214.40;;;;;;;-4.41;89.34;104362.19;4997350;28;20049;-73
2023/02/07 00:12:30;;;;;;;230.18;212.40;;;;;;;-4.31;89.75;104363.41;4987631;28;20040;-70
2023/02/07 00:14:55;;;;;;;235.50;217.30;;;;;;;-4.40;89.56;104362.13;4979053;28;20034;-70
2023/02/07 00:17:21;;;;;;;222.43;204.43;;;;;;;-4.42;89.64;104361.34;5029342;28;20056;-73
2023/02/07 00:19:47;;;;;;;220.30;201.95;;;;;;;-4.44;89.22;104368.44;4998816;28;20053;-69
2023/02/07 00:22:13;;;;;;;222.77;204.40;;;;;;;-4.42;89.53;104365.72;4998679;28;20037;-73
2023/02/07 00:24:38;;;;;;;224.10;205.77;;;;;;;-4.38;89.33;104372.50;5027414;28;20038;-73
2023/02/07 00:27:04;;;;;;;234.07;216.23;;;;;;;-4.35;89.27;104369.72;4981059;28;20041;-73
2023/02/07 00:29:31;;;;;;;228.00;209.80;;;;;;;-4.33;89.97;104370.50;4998868;28;20093;-73
2023/02/07 00:31:57;;;;;;;229.80;212.05;;;;;;;-4.43;89.42;104374.53;4983042;28;20548;-72
2023/02/07 00:34:24;;;;;;;231.48;213.63;;;;;;;-4.40;89.08;104380.44;5001460;28;20040;-73
2023/02/07 00:36:49;;;;;;;230.20;212.50;;;;;;;-4.46;88.36;104370.31;4985247;28;20115;-74
2023/02/07 00:39:16;;;;;;;217.63;200.00;;;;;;;-4.47;88.58;104368.63;5002616;28;20033;-72
2023/02/07 00:41:43;;;;;;;218.02;200.32;;;;;;;-4.56;88.69;104368.25;4998947;28;20029;-70
2023/02/07 00:44:10;;;;;;;225.38;207.80;;;;;;;-4.65;88.92;104372.19;4981995;28;20065;-71
2023/02/07 00:46:36;;;;;;;229.65;212.00;;;;;;;-4.68;88.70;104372.34;5016049;28;20049;-70
2023/02/07 00:49:03;;;;;;;223.60;205.48;;;;;;;-4.74;88.48;104365.69;5016226;28;20116;-70
2023/02/07 00:51:29;;;;;;;220.35;202.50;;;;;;;-4.75;88.83;104363.97;4984813;28;20045;-72
2023/02/07 00:53:56;;;;;;;229.07;210.95;;;;;;;-4.68;89.13;104365.34;5032938;28;20046;-72
2023/02/07 00:56:25;;;;;;;219.30;201.10;;;;;;;-4.53;89.75;104358.47;4986761;28;20439;-73
2023/02/07 00:58:54;;;;;;;228.05;210.48;;;;;;;-4.65;88.92;104358.28;5002150;28;20058;-72
2023/02/07 01:01:21;;;;;;;217.13;199.32;;;;;;;-4.74;88.29;104344.75;4984400;28;20034;-73
2023/02/07 01:03:48;;;;;;;226.27;208.60;;;;;;;-4.72;88.92;104337.69;4991926;28;20041;-71
2023/02/07 01:06:13;;;;;;;228.18;210.75;;;;;;;-4.75;88.39;104345.66;4968039;28;20042;-70
2023/02/07 01:08:39;;;;;;;225.38;207.98;;;;;;;-4.77;88.52;104355.38;5005920;28;20123;-72
2023/02/07 01:11:08;;;;;;;231.45;213.52;;;;;;;-4.76;88.98;104349.22;4987162;28;20046;-70
2023/02/07 01:13:36;;;;;;;217.70;199.98;;;;;;;-4.80;88.76;104350.31;4981118;28;20037;-71
2023/02/07 01:16:02;;;;;;;220.88;202.80;;;;;;;-4.83;88.14;104352.22;4991280;28;20349;-73
2023/02/07 01:18:28;;;;;;;212.95;195.48;;;;;;;-4.87;88.46;104354.19;4988681;28;20053;-71
2023/02/07 01:20:53;;;;;;;216.68;198.77;;;;;;;-4.93;88.64;104353.66;4987910;28;20570;-73
2023/02/07 01:23:19;;;;;;;218.50;200.38;;;;;;;-4.89;89.24;104356.00;5002877;28;20448;-69
2023/02/07 01:25:45;;;;;;;222.52;203.95;;;;;;;-4.98;89.10;104351.25;5002975;28;20034;-70
2023/02/07 01:28:13;;;;;;;219.05;200.70;;;;;;;-4.95;88.94;104345.84;5004296;28;20025;-71
2023/02/07 01:30:40;;;;;;;218.95;201.00;;;;;;;-4.83;89.02;104340.00;5008576;28;20087;-71
2023/02/07 01:33:06;;;;;;;218.85;200.73;;;;;;;-4.81;89.62;104338.16;5001130;28;20292;-72
2023/02/07 01:35:33;;;;;;;228.27;210.43;;;;;;;-4.89;89.07;104335.09;5002399;28;20494;-71
2023/02/07 01:38:01;;;;;;;226.90;209.38;;;;;;;-4.96;88.31;104345.00;4962498;28;20045;-72
2023/02/07 01:40:28;;;;;;;216.90;199.23;;;;;;;-5.06;88.58;104337.75;4998192;28;20096;-71
2023/02/07 01:42:56;;;;;;;214.55;196.73;;;;;;;-5.08;88.46;104340.44;4999730;28;20455;-70
2023/02/07 01:45:35;;;;;;;228.68;210.95;;;;;;;-5.08;88.17;104335.22;4993216;28;20073;-72
2023/02/07 01:48:12;;;;;;;218.60;200.60;;;;;;;-5.07;87.81;104341.28;4987088;28;20549;-70
2023/02/07 01:50:45;;;;;;;227.73;210.60;;;;;;;-4.93;88.31;104344.03;5024901;28;20044;-70
2023/02/07 01:53:15;;;;;;;222.13;203.80;;;;;;;-4.84;89.18;104333.09;5008544;28;20064;-72
2023/02/07 01:55:41;;;;;;;228.27;210.52;;;;;;;-4.74;88.82;104336.03;5005338;28;20038;-71
2023/02/07 01:58:08;;;;;;;229.95;212.38;;;;;;;-4.78;88.70;104334.53;5000919;28;20044;-72
2023/02/07 02:00:35;;;;;;;218.73;200.02;;;;;;;-4.78;89.36;104321.47;5002755;28;20044;-73
2023/02/07 02:03:01;;;;;;;220.88;202.35;;;;;;;-4.69;89.32;104336.66;5003778;28;20492;-69
2023/02/07 02:05:30;;;;;;;222.27;203.88;;;;;;;-4.89;89.14;104329.00;4985303;28;20069;-70
2023/02/07 02:07:55;;;;;;;230.43;212.60;;;;;;;-4.83;89.42;104329.53;5001981;28;20036;-71
2023/02/07 02:10:25;;;;;;;226.63;208.95;;;;;;;-4.84;89.27;104332.25;4998483;28;20034;-69
2023/02/07 02:13:22;;;;;;;229.43;211.63;;;;;;;-4.91;88.78;104330.88;5013851;28;20088;-70
2023/02/07 02:16:03;;;;;;;216.38;198.60;;;;;;;-4.91;89.09;104330.88;4995571;28;20033;-72
2023/02/07 02:19:05;;;;;;;225.25;208.18;;;;;;;-4.98;88.76;104339.03;5000502;28;20053;-72
2023/02/07 02:22:05;;;;;;;221.75;203.20;;;;;;;-4.97;89.71;104345.09;4992830;28;20054;-73
2023/02/07 02:24:40;;;;;;;217.73;199.65;;;;;;;-4.75;89.60;104337.81;5003286;28;20029;-71
2023/02/07 02:27:39;;;;;;;222.18;203.00;;;;;;;-4.54;90.07;104341.09;4997206;28;20042;-72
2023/02/07 02:30:28;;;;;;;232.20;214.43;;;;;;;-4.59;89.48;104331.81;4985191;28;20066;-70
2023/02/07 02:33:36;;;;;;;218.07;199.82;;;;;;;-4.80;88.79;104332.00;4989692;28;20077;-69
2023/02/07 02:36:08;;;;;;;227.55;210.32;;;;;;;-5.06;88.75;104343.81;5014592;28;20037;-71
2023/02/07 02:38:46;;;;;;;216.45;198.35;;;;;;;-4.91;89.18;104350.00;4987105;28;20042;-72
2023/02/07 02:41:21;;;;;;;229.50;211.93;;;;;;;-4.93;88.69;104343.19;4996013;28;20038;-70
2023/02/07 02:44:00;;;;;;;229.23;211.52;;;;;;;-4.92;89.64;104332.66;5016088;28;20053;-71
2023/02/07 02:46:30;;;;;;;227.80;210.35;;;;;;;-4.88;89.36;104326.31;4988059;28;20045;-72
2023/02/07 02:49:00;;;;;;;216.57;198.65;;;;;;;-5.07;89.06;104330.81;5002634;28;20040;-72
2023/02/07 02:51:30;;;;;;;225.18;208.05;;;;;;;-5.21;88.83;104336.75;4986725;28;20034;-71
2023/02/07 02:53:58;;;;;;;226.52;208.88;;;;;;;-5.31;89.07;104327.69;4980829;28;20070;-72
2023/02/07 02:57:15;;;;;;;226.93;209.75;;;;;;;-5.31;88.86;104331.13;4996903;28;20033;-71
2023/02/07 02:59:50;;;;;;;211.77;194.45;;;;;;;-5.33;88.71;104327.78;4983777;28;20066;-72
2023/02/07 03:02:43;;;;;;;231.07;213.13;;;;;;;-5.30;89.41;104324.13;5000477;28;20104;-72
2023/02/07 03:05:35;;;;;;;219.80;201.57;;;;;;;-5.31;89.56;104325.06;4984218;28;20038;-70
2023/02/07 03:08:23;;;;;;;221.68;203.13;;;;;;;-5.12;89.44;104320.59;4962216;28;20050;-73
2023/02/07 03:10:56;;;;;;;213.70;196.20;;;;;;;-5.18;88.92;104317.47;5007662;28;20068;-70
2023/02/07 03:13:33;;;;;;;215.40;197.60;;;;;;;-5.23;89.19;104310.69;4996018;28;20152;-72
2023/02/07 03:16:12;;;;;;;232.98;214.82;;;;;;;-5.26;89.55;104318.69;5003745;28;20399;-73
2023/02/07 03:19:00;;;;;;;214.27;196.88;;;;;;;-5.24;89.73;104310.78;4987957;28;20045;-72
2023/02/07 03:21:32;;;;;;;225.15;206.20;;;;;;;-5.28;89.67;104301.41;4984040;28;20038;-73
2023/02/07 03:24:01;;;;;;;222.40;204.13;;;;;;;-5.33;88.99;104298.19;5003947;28;20037;-74
2023/02/07 03:26:29;;;;;;;235.55;217.35;;;;;;;-5.47;88.94;104303.25;4983728;28;20268;-71
2023/02/07 03:28:57;;;;;;;227.73;210.30;;;;;;;-5.46;88.70;104303.19;4983857;28;20111;-73
2023/02/07 03:31:25;;;;;;;230.15;212.35;;;;;;;-5.53;88.26;104296.56;4985340;28;20041;-72
2023/02/07 03:33:57;;;;;;;215.40;197.60;;;;;;;-5.52;88.21;104293.03;4995633;28;20041;-71
2023/02/07 03:36:28;;;;;;;235.40;217.30;;;;;;;-5.54;88.61;104276.59;5001461;28;20037;-74
2023/02/07 03:38:54;;;;;;;226.60;209.50;;;;;;;-5.52;87.88;104279.97;5001743;28;20124;-73
2023/02/07 03:41:29;;;;;;;226.55;209.30;;;;;;;-5.51;87.72;104268.59;5002319;28;20037;-71
2023/02/07 03:43:59;;;;;;;213.63;196.27;;;;;;;-5.53;87.90;104271.31;4983392;28;20133;-73
2023/02/07 03:46:25;;;;;;;225.63;208.75;;;;;;;-5.54;88.73;104269.63;5003734;28;20107;-71
2023/02/07 03:48:51;;;;;;;225.88;208.77;;;;;;;-5.36;89.29;104262.59;5010770;28;20057;-72
2023/02/07 03:51:16;;;;;;;227.55;210.32;;;;;;;-5.39;89.09;104273.22;4986014;28;20109;-72
2023/02/07 03:53:42;;;;;;;227.20;209.52;;;;;;;-5.44;88.46;104243.84;4999659;28;20033;-72
2023/02/07 03:56:07;;;;;;;220.75;202.57;;;;;;;-5.32;88.67;104243.22;4997279;28;20034;-73
2023/02/07 03:58:33;;;;;;;220.27;201.80;;;;;;;-5.37;88.97;104245.22;4996356;28;20541;-73
2023/02/07 04:00:58;;;;;;;215.70;197.77;;;;;;;-5.46;89.35;104248.31;5001676;28;20038;-72
2023/02/07 04:03:24;;;;;;;220.63;202.02;;;;;;;-5.53;88.91;104254.78;4998280;28;20048;-73
2023/02/07 04:05:50;;;;;;;244.93;225.40;;;;;;;-5.67;88.57;104254.63;5001855;28;20131;-73
2023/02/07 04:08:18;;;;;;;302.40;276.65;;;;;;;-5.73;88.75;104254.94;4999019;28;20045;-74
2023/02/07 04:10:44;;;;;;;268.40;246.93;;;;;;;-5.69;89.07;104253.84;5003575;28;20423;-74
2023/02/07 04:13:09;;;;;;;275.25;253.35;;;;;;;-5.69;88.69;104264.28;5002885;28;20038;-74
2023/02/07 04:15:35;;;;;;;267.85;246.48;;;;;;;-5.82;88.94;104259.72;5010266;28;20134;-70
2023/02/07 04:18:00;;;;;;;228.95;209.55;;;;;;;-5.84;89.27;104271.97;5020254;28;20045;-70
2023/02/07 04:20:26;;;;;;;236.18;216.25;;;;;;;-5.80;88.53;104281.34;5006141;28;20042;-70
2023/02/07 04:22:52;;;;;;;232.63;212.85;;;;;;;-5.93;88.24;104288.13;5007585;28;20030;-73
2023/02/07 04:25:17;;;;;;;231.43;211.75;;;;;;;-5.90;88.60;104292.31;4992038;28;20041;-70
2023/02/07 04:27:43;;;;;;;265.67;244.25;;;;;;;-5.93;88.49;104290.72;4993017;28;20918;-71
2023/02/07 04:30:09;;;;;;;213.30;195.60;;;;;;;-5.84;88.29;104281.56;5004158;28;20667;-76
2023/02/07 04:32:35;;;;;;;239.57;219.57;;;;;;;-5.92;87.46;104278.53;5006259;28;20083;-70
2023/02/07 04:35:00;;;;;;;240.88;221.77;;;;;;;-5.92;87.48;104268.94;5008538;28;20045;-75
2023/02/07 04:37:26;;;;;;;240.60;219.63;;;;;;;-6.00;87.58;104275.44;5013959;28;20034;-71
2023/02/07 04:39:54;;;;;;;236.63;218.02;;;;;;;-5.92;87.54;104263.72;5008086;28;20053;-74
2023/02/07 04:42:20;;;;;;;233.20;214.90;;;;;;;-5.94;87.10;104260.34;4990418;28;20714;-70
2023/02/07 04:44:45;;;;;;;249.85;230.30;;;;;;;-6.01;86.85;104266.78;5008310;28;20109;-70
2023/02/07 04:47:11;;;;;;;259.15;238.00;;;;;;;-6.11;86.86;104266.34;5006802;28;20038;-70
2023/02/07 04:49:37;;;;;;;250.02;228.73;;;;;;;-6.10;87.56;104259.38;5008727;28;20416;-70
2023/02/07 04:52:03;;;;;;;237.15;217.07;;;;;;;-6.15;86.91;104266.59;5015042;28;20033;-74
2023/02/07 04:54:28;;;;;;;251.18;229.77;;;;;;;-6.17;87.30;104264.03;4997647;28;20164;-70
2023/02/07 04:56:54;;;;;;;236.60;216.60;;;;;;;-6.10;86.89;104259.38;5005770;28;20041;-70
2023/02/07 04:59:20;;;;;;;237.82;219.20;;;;;;;-6.18;86.93;104261.50;5004616;28;20390;-70
2023/02/07 05:01:46;;;;;;;227.48;208.18;;;;;;;-6.19;86.92;104262.44;5010653;28;20065;-70
2023/02/07 05:04:14;;;;;;;232.63;214.40;;;;;;;-6.19;87.09;104265.88;4989849;28;20116;-71
2023/02/07 05:06:39;;;;;;;237.98;219.23;;;;;;;-6.16;87.16;104270.97;5010220;28;20030;-71
2023/02/07 05:09:05;;;;;;;246.15;226.90;;;;;;;-6.24;86.77;104267.00;5004282;28;20042;-70
2023/02/07 05:11:30;;;;;;;223.70;204.48;;;;;;;-6.29;86.17;104276.84;5006801;28;20487;-70
2023/02/07 05:13:56;;;;;;;232.88;213.02;;;;;;;-6.36;86.50;104287.56;4996256;28;20046;-69
2023/02/07 05:16:22;;;;;;;225.23;205.95;;;;;;;-6.41;86.59;104297.34;5001609;28;20476;-70
2023/02/07 05:18:47;;;;;;;240.50;220.15;;;;;;;-6.35;86.57;104297.06;5003389;28;20037;-68
2023/02/07 05:21:13;;;;;;;243.75;224.45;;;;;;;-6.26;87.48;104302.78;5002870;28;20290;-69
2023/02/07 05:23:38;;;;;;;226.40;207.20;;;;;;;-6.26;87.21;104302.78;5007380;28;20132;-71
2023/02/07 05:26:04;;;;;;;218.15;199.60;;;;;;;-6.15;87.54;104297.91;5002471;28;20057;-70
2023/02/07 05:28:30;;;;;;;229.15;211.35;;;;;;;-6.08;87.21;104304.53;5005410;28;20127;-71
2023/02/07 05:30:55;;;;;;;224.90;207.52;;;;;;;-6.21;86.48;104308.63;5003468;28;20053;-70
2023/02/07 05:33:21;;;;;;;229.70;212.25;;;;;;;-6.20;87.15;104311.16;5004451;28;20149;-70
2023/02/07 05:35:47;;;;;;;218.85;200.82;;;;;;;-6.26;86.83;104311.44;5006206;28;20037;-71
2023/02/07 05:38:15;;;;;;;227.13;209.82;;;;;;;-6.30;86.67;104304.66;4988796;28;20125;-70
2023/02/07 05:40:41;;;;;;;229.45;209.63;;;;;;;-6.21;87.74;104303.41;5002796;28;20108;-69
2023/02/07 05:43:07;;;;;;;240.73;220.55;;;;;;;-6.14;86.85;104303.03;5000794;28;20483;-70
2023/02/07 05:45:34;;;;;;;253.05;233.50;;;;;;;-6.23;86.77;104311.31;5000968;28;20030;-69
2023/02/07 05:48:00;;;;;;;251.02;230.80;;;;;;;-6.31;86.81;104318.63;5002227;28;20415;-73
2023/02/07 05:50:27;;;;;;;246.43;227.75;;;;;;;-6.40;86.82;104319.06;5003103;28;20507;-72
2023/02/07 05:53:04;;;;;;;248.73;229.23;;;;;;;-6.45;86.23;104316.66;4983243;28;20046;-74
2023/02/07 05:55:30;;;;;;;241.68;221.70;;;;;;;-6.37;87.46;104316.31;4996237;28;20046;-69
2023/02/07 05:57:56;;;;;;;258.85;239.00;;;;;;;-6.49;86.56;104328.16;5003698;28;20462;-72
2023/02/07 06:00:22;;;;;;;265.83;245.52;;;;;;;-6.50;87.02;104336.91;5000287;28;20042;-70
2023/02/07 06:02:47;;;;;;;247.45;227.27;;;;;;;-6.39;86.95;104339.84;4998658;28;20558;-73
2023/02/07 06:05:15;;;;;;;248.60;228.25;;;;;;;-6.19;87.23;104335.47;4986871;28;20080;-70
2023/02/07 06:07:42;;;;;;;258.55;238.73;;;;;;;-6.19;86.59;104332.88;5001903;28;20029;-73
2023/02/07 06:10:09;;;;;;;273.58;253.10;;;;;;;-6.13;87.07;104348.25;5007282;28;20037;-69
2023/02/07 06:12:34;;;;;;;275.92;255.25;;;;;;;-5.98;88.00;104331.84;4999795;28;20033;-71
2023/02/07 06:15:00;;;;;;;267.20;245.55;;;;;;;-5.79;88.17;104327.41;5002186;28;20050;-68
2023/02/07 06:17:26;;;;;;;281.67;259.38;;;;;;;-5.95;87.02;104336.94;5008078;28;20030;-73
2023/02/07 06:19:52;;;;;;;275.42;253.40;;;;;;;-6.15;86.54;104334.44;5001782;28;20048;-71
2023/02/07 06:22:18;;;;;;;260.52;238.80;;;;;;;-6.15;87.34;104334.44;5020279;28;20666;-69
2023/02/07 06:24:43;;;;;;;267.55;246.98;;;;;;;-6.27;86.27;104337.59;4989531;28;20030;-70
2023/02/07 06:27:10;;;;;;;283.40;261.95;;;;;;;-6.28;87.11;104344.59;4970330;28;20088;-70
2023/02/07 06:29:36;;;;;;;279.50;257.15;;;;;;;-6.29;87.37;104347.28;5003534;28;20036;-70
2023/02/07 06:32:02;;;;;;;282.38;261.15;;;;;;;-6.29;87.09;104348.13;5004787;28;20037;-74
2023/02/07 06:34:27;;;;;;;268.70;247.68;;;;;;;-6.42;86.34;104358.25;4998704;28;20037;-71
2023/02/07 06:36:53;;;;;;;270.25;248.82;;;;;;;-6.32;87.35;104353.47;5004519;28;20080;-69
2023/02/07 06:39:19;;;;;;;261.00;239.85;;;;;;;-6.06;88.62;104360.09;5003772;28;20029;-71
2023/02/07 06:41:44;;;;;;;282.38;261.17;;;;;;;-5.99;88.03;104360.66;5003563;28;20146;-68
2023/02/07 06:44:10;;;;;;;282.35;260.73;;;;;;;-5.94;88.20;104367.34;5003036;28;20045;-70
2023/02/07 06:46:36;;;;;;;270.10;248.35;;;;;;;-6.05;86.69;104356.56;5003371;28;20038;-69
2023/02/07 06:49:02;;;;;;;275.20;252.27;;;;;;;-6.20;86.27;104370.31;5009759;28;20045;-71
2023/02/07 06:51:27;;;;;;;242.55;223.45;;;;;;;-6.26;87.02;104368.00;5002042;28;20030;-71
2023/02/07 06:53:53;;;;;;;232.20;214.13;;;;;;;-6.16;86.53;104358.84;5001507;28;20129;-68
2023/02/07 06:56:19;;;;;;;218.30;199.98;;;;;;;-6.10;87.57;104358.53;5001837;28;20029;-69
2023/02/07 06:58:44;;;;;;;219.75;201.30;;;;;;;-6.19;86.88;104359.81;5002872;28;20041;-69
2023/02/07 07:01:10;;;;;;;218.68;200.55;;;;;;;-6.18;87.21;104352.81;5003263;28;20231;-71
2023/02/07 07:03:36;;;;;;;229.82;212.05;;;;;;;-6.08;87.46;104351.50;5000456;28;20034;-73
2023/02/07 07:06:01;;;;;;;222.75;204.13;;;;;;;-5.97;88.14;104357.03;5001672;28;20049;-73
2023/02/07 07:08:27;;;;;;;232.82;214.77;;;;;;;-5.72;88.14;104354.06;5007967;28;20070;-70
2023/02/07 07:10:55;;;;;;;220.77;202.30;;;;;;;-5.71;87.66;104354.91;5006882;28;20041;-70
2023/02/07 07:13:21;;;;;;;218.95;200.95;;;;;;;-5.78;87.24;104365.66;5002547;28;20704;-71
2023/02/07 07:15:47;;;;;;;218.48;200.35;;;;;;;-5.85;87.12;104376.47;4988290;28;20052;-69
2023/02/07 07:18:13;;;;;;;232.38;214.40;;;;;;;-5.81;87.35;104376.25;5004531;28;20128;-69
2023/02/07 07:20:39;;;;;;;231.45;213.55;;;;;;;-5.81;87.12;104373.66;4987243;28;20084;-70
2023/02/07 07:23:05;;;;;;;231.82;214.02;;;;;;;-5.84;86.53;104378.16;4981716;28;20033;-70
2023/02/07 07:25:30;;;;;;;231.95;214.05;;;;;;;-5.90;86.47;104371.44;5002919;28;20041;-70
2023/02/07 07:27:56;;;;;;;217.77;199.65;;;;;;;-5.88;87.30;104380.09;4998860;28;20514;-68
2023/02/07 07:30:22;;;;;;;221.10;202.80;;;;;;;-5.78;87.51;104385.69;4988487;28;20039;-70
2023/02/07 07:32:48;;;;;;;217.98;199.77;;;;;;;-5.60;87.05;104381.38;4999176;28;20121;-69
2023/02/07 07:35:14;;;;;;;222.52;203.88;;;;;;;-5.51;86.84;104386.13;4996657;28;20138;-71
2023/02/07 07:37:40;;;;;;;232.57;214.63;;;;;;;-5.50;86.63;104390.44;4995898;28;20066;-72
2023/02/07 07:40:06;;;;;;;221.98;203.57;;;;;;;-5.59;86.92;104388.28;5001193;28;20100;-70
2023/02/07 07:42:34;;;;;;;220.65;202.45;;;;;;;-5.52;86.91;104382.69;4978898;28;20045;-70
2023/02/07 07:45:12;;;;;;;236.95;218.60;;;;;;;-5.47;86.78;104381.63;4995764;28;20095;-72
2023/02/07 07:47:38;;;;;;;224.98;206.35;;;;;;;-5.48;86.67;104372.94;5000469;28;20026;-70
2023/02/07 07:50:05;;;;;;;223.50;204.73;;;;;;;-5.46;86.57;104371.09;5010851;28;20041;-71
2023/02/07 07:52:31;;;;;;;224.75;206.05;;;;;;;-5.39;86.87;104372.47;4985002;28;20778;-73
2023/02/07 07:54:56;;;;;;;221.30;202.80;;;;;;;-5.30;86.94;104379.84;5000572;28;20041;-72
2023/02/07 07:57:26;;;;;;;223.35;204.63;;;;;;;-5.16;86.61;104373.94;5002078;28;20128;-70
2023/02/07 07:59:53;;;;;;;224.85;206.15;;;;;;;-5.16;86.45;104371.31;4986374;28;20045;-68
2023/02/07 08:02:20;;;;;;;236.60;217.70;;;;;;;-5.15;86.33;104382.63;5003091;28;20026;-75
2023/02/07 08:04:45;;;;;;;224.02;205.50;;;;;;;-5.05;86.73;104376.88;5035269;28;20037;-75
2023/02/07 08:07:12;;;;;;;225.02;206.25;;;;;;;-4.97;86.42;104384.31;5016811;28;20085;-73
2023/02/07 08:09:38;;;;;;;226.18;207.40;;;;;;;-4.98;86.58;104380.00;4996121;28;20558;-72
2023/02/07 08:12:03;;;;;;;234.15;215.95;;;;;;;-4.90;86.59;104390.06;5019910;28;20128;-71
2023/02/07 08:14:29;;;;;;;230.80;211.23;;;;;;;-4.94;86.76;104381.56;5006938;28;20063;-72
2023/02/07 08:16:55;;;;;;;238.82;219.68;;;;;;;-4.82;86.80;104382.69;5012139;28;20061;-71
2023/02/07 08:19:20;;;;;;;226.43;207.18;;;;;;;-4.71;86.31;104381.22;4990059;28;20104;-73
2023/02/07 08:21:46;;;;;;;238.90;219.88;;;;;;;-4.78;86.25;104385.06;5005181;28;20376;-72
2023/02/07 08:24:12;;;;;;;228.77;208.98;;;;;;;-4.80;86.69;104381.69;5015313;28;20101;-73
2023/02/07 08:26:37;;;;;;;227.85;208.35;;;;;;;-4.74;86.50;104380.50;5003864;28;20044;-72
2023/02/07 08:29:03;;;;;;;233.70;214.88;;;;;;;-4.74;86.95;104376.16;4983847;28;20042;-71
2023/02/07 08:31:28;;;;;;;238.27;218.95;;;;;;;-4.74;86.43;104370.91;5017785;28;20121;-75
2023/02/07 08:33:54;;;;;;;224.95;205.35;;;;;;;-4.69;86.56;104368.88;5001373;28;20042;-72
2023/02/07 08:36:20;;;;;;;226.15;207.02;;;;;;;-4.63;86.55;104366.88;5000851;28;20042;-70
2023/02/07 08:38:46;;;;;;;237.43;218.52;;;;;;;-4.56;86.79;104361.25;5034112;28;20069;-70
2023/02/07 08:41:11;;;;;;;224.48;205.52;;;;;;;-4.51;87.13;104363.63;5000955;28;20041;-69
2023/02/07 08:43:37;;;;;;;240.25;219.60;;;;;;;-4.39;87.38;104362.97;5006327;28;20025;-70
2023/02/07 08:46:03;;;;;;;229.15;206.20;;;;;;;-4.36;87.08;104362.78;4986859;28;20068;-70
2023/02/07 08:48:30;;;;;;;236.00;216.32;;;;;;;-4.36;86.77;104362.78;5009219;28;20803;-70
2023/02/07 08:50:55;;;;;;;236.88;215.20;;;;;;;-4.43;86.80;104370.13;5005752;28;20034;-72
2023/02/07 08:53:21;;;;;;;233.52;215.43;;;;;;;-4.31;86.94;104360.78;5037967;28;21196;-70
2023/02/07 08:55:47;;;;;;;223.32;204.45;;;;;;;-4.29;86.15;104371.16;4986869;28;20049;-70
2023/02/07 08:58:14;;;;;;;237.18;218.40;;;;;;;-4.25;86.45;104378.78;5005675;28;20041;-70
2023/02/07 09:00:39;;;;;;;238.48;219.00;;;;;;;-4.13;86.50;104370.25;5004116;28;20052;-70
2023/02/07 09:03:04;;;;;;;224.40;205.88;;;;;;;-4.00;86.67;104366.94;5004538;28;20048;-70
2023/02/07 09:05:32;;;;;;;222.20;203.60;;;;;;;-4.01;86.22;104370.50;4983967;28;20050;-70
2023/02/07 09:07:59;;;;;;;235.95;217.52;;;;;;;-4.11;86.30;104370.16;5007372;28;20104;-70
2023/02/07 09:10:25;;;;;;;226.60;207.40;;;;;;;-3.88;86.04;104369.72;5009200;28;20049;-71
2023/02/07 09:12:51;;;;;;;244.95;223.15;;;;;;;-3.76;86.40;104370.81;5005874;28;20405;-70
2023/02/07 09:15:16;;;;;;;241.57;222.38;;;;;;;-3.91;85.67;104374.31;4986849;28;20065;-71
2023/02/07 09:17:42;;;;;;;230.07;206.15;;;;;;;-3.79;86.41;104370.13;4989826;28;20037;-70
2023/02/07 09:20:08;;;;;;;228.65;206.75;;;;;;;-3.81;86.47;104382.47;4991623;28;20045;-71
2023/02/07 09:23:16;;;;;;;237.20;217.43;;;;;;;-3.91;86.40;104384.78;4992245;28;20047;-70
2023/02/07 09:25:20;;;;;;;239.85;219.93;;;;;;;-3.83;85.97;104389.59;5003990;28;20041;-70
2023/02/07 09:27:45;;;;;;;236.57;215.65;;;;;;;-3.78;85.94;104391.03;4990548;28;20030;-71
2023/02/07 09:30:11;;;;;;;223.18;203.43;;;;;;;-3.81;85.92;104388.56;5005741;28;20034;-70
2023/02/07 09:32:36;;;;;;;236.82;218.23;;;;;;;-3.62;86.55;104394.47;4986389;28;20109;-71
2023/02/07 09:35:02;;;;;;;225.68;203.82;;;;;;;-3.55;85.36;104396.75;5002142;28;20057;-70
2023/02/07 09:37:28;;;;;;;241.48;221.02;;;;;;;-3.43;85.19;104390.81;5007788;28;20041;-72
2023/02/07 09:39:54;;;;;;;230.35;207.68;;;;;;;-3.57;85.28;104391.59;5001882;28;20549;-70
2023/02/07 09:42:33;;;;;;;227.07;205.52;;;;;;;-3.49;85.12;104391.16;5007954;28;20037;-70
2023/02/07 09:45:20;;;;;;;240.60;218.10;;;;;;;-3.49;84.98;104383.28;5025460;28;20037;-68
2023/02/07 09:47:52;;;;;;;227.60;206.75;;;;;;;-3.53;85.59;104398.31;5007942;28;20018;-69
2023/02/07 09:50:22;;;;;;;227.13;205.82;;;;;;;-3.52;85.42;104397.44;5003735;28;20137;-71
2023/02/07 09:53:05;;;;;;;225.13;205.60;;;;;;;-3.32;85.89;104391.00;5006109;28;20030;-73
2023/02/07 09:55:48;;;;;;;237.52;217.13;;;;;;;-3.29;85.44;104385.59;5005071;28;20513;-70
2023/02/07 09:58:21;;;;;;;226.25;206.35;;;;;;;-3.25;85.42;104387.13;4991629;28;20045;-75
2023/02/07 10:01:03;;;;;;;227.82;207.80;;;;;;;-3.31;85.70;104393.56;5003746;28;20053;-71
2023/02/07 10:03:31;;;;;;;222.37;203.13;;;;;;;-3.25;85.65;104402.84;5001267;28;20044;-72
2023/02/07 10:06:09;;;;;;;236.45;216.68;;;;;;;-3.14;85.18;104389.94;5008065;28;20041;-73
2023/02/07 10:08:35;;;;;;;229.63;209.25;;;;;;;-2.95;85.08;104388.88;5001646;28;20056;-70
2023/02/07 10:11:26;;;;;;;240.50;220.48;;;;;;;-2.92;84.61;104386.91;5000534;28;20395;-72
2023/02/07 10:14:09;;;;;;;240.80;221.55;;;;;;;-2.94;84.47;104385.31;4989268;28;20042;-69
2023/02/07 10:16:53;;;;;;;240.82;220.60;;;;;;;-2.81;84.29;104391.50;5006199;28;20050;-70
2023/02/07 10:19:43;;;;;;;235.95;216.32;;;;;;;-2.68;83.93;104386.38;5005996;28;20034;-73
2023/02/07 10:22:42;;;;;;;230.50;210.02;;;;;;;-2.84;84.66;104386.47;5001520;28;20029;-73
2023/02/07 10:25:20;;;;;;;228.63;206.13;;;;;;;-3.11;85.08;104384.53;5002126;28;20044;-73
2023/02/07 10:28:26;;;;;;;228.70;208.18;;;;;;;-2.93;84.87;104392.25;4993936;28;20044;-70
2023/02/07 10:30:59;;;;;;;230.77;211.07;;;;;;;-2.79;84.50;104379.13;5016972;28;20068;-72
2023/02/07 10:33:30;;;;;;;;;;;;;;;-2.79;84.54;104373.91;5002918;28;20042;-73
2023/02/07 10:35:55;;;;;;;241.85;222.98;;;;;;;-2.65;84.38;104380.94;5003002;28;20286;-73
2023/02/07 10:38:53;;;;;;;241.02;222.13;;;;;;;-2.72;84.17;104377.00;5004440;28;20034;-72
2023/02/07 10:41:28;;;;;;;242.68;223.68;;;;;;;-2.77;83.79;104369.41;5001486;28;20109;-72
2023/02/07 10:43:54;;;;;;;242.13;222.88;;;;;;;-2.56;83.95;104365.47;5018350;28;20025;-71
2023/02/07 10:46:21;;;;;;;243.07;223.30;;;;;;;-2.80;84.67;104364.34;4987880;28;20063;-73
2023/02/07 10:48:49;;;;;;;245.98;226.15;;;;;;;-2.65;84.42;104366.03;4971658;28;20042;-71
2023/02/07 10:51:35;;;;;;;244.52;224.80;;;;;;;-2.37;83.88;104361.69;5004992;28;20101;-72
2023/02/07 10:54:08;;;;;;;235.52;215.25;;;;;;;-2.27;83.50;104354.94;4985801;28;20053;-73
2023/02/07 10:56:53;;;;;;;246.73;227.20;;;;;;;-2.24;83.04;104355.59;5017675;28;20041;-72
2023/02/07 10:59:39;;;;;;;233.52;213.82;;;;;;;-1.95;82.60;104360.78;4998612;28;20033;-71
2023/02/07 11:02:27;;;;;;;232.80;213.00;;;;;;;-1.79;81.81;104363.25;4990396;28;20046;-71
2023/02/07 11:04:53;;;;;;;246.27;226.77;;;;;;;-1.78;82.09;104359.69;5002629;28;20125;-72